createdAt,value
2022-12-03T00:00:33.912Z,101830.64
2022-12-03T00:04:20.200Z,101831.96
2022-12-03T00:07:47.043Z,101831.65
2022-12-03T00:11:13.788Z,101832.15
2022-12-03T00:14:44.627Z,101833.39
2022-12-03T00:18:12.179Z,101830.70
2022-12-03T00:21:39.063Z,101825.05
2022-12-03T00:25:07.061Z,101825.59
2022-12-03T00:28:34.161Z,101822.97
2022-12-03T00:32:01.099Z,101822.02
2022-12-03T00:35:27.762Z,101818.15
2022-12-03T00:38:54.536Z,101815.41
2022-12-03T00:42:21.946Z,101817.38
2022-12-03T00:45:48.853Z,101817.05
2022-12-03T00:49:15.742Z,101816.88
2022-12-03T00:52:42.600Z,101812.55
2022-12-03T00:56:11.024Z,101813.23
2022-12-03T00:59:37.950Z,101821.14
2022-12-03T01:03:06.738Z,101817.64
2022-12-03T01:06:33.589Z,101817.20
2022-12-03T01:10:00.440Z,101816.39
2022-12-03T01:13:27.756Z,101818.15
2022-12-03T01:16:54.753Z,101816.48
2022-12-03T01:20:21.886Z,101813.84
2022-12-03T01:23:48.752Z,101815.98
2022-12-03T01:27:15.586Z,101813.10
2022-12-03T01:30:56.249Z,101812.83
2022-12-03T01:34:22.933Z,101816.02
2022-12-03T01:37:50.095Z,101812.77
2022-12-03T01:41:17.935Z,101814.74
2022-12-03T01:44:45.980Z,101814.66
2022-12-03T01:48:16.611Z,101816.25
2022-12-03T01:51:43.911Z,101811.95
2022-12-03T01:55:17.313Z,101809.23
2022-12-03T01:58:45.650Z,101804.95
2022-12-03T02:02:21.062Z,101797.70
2022-12-03T02:05:48.427Z,101797.25
2022-12-03T02:09:16.714Z,101796.13
2022-12-03T02:12:48.620Z,101792.30
2022-12-03T02:16:15.735Z,101792.25
2022-12-03T02:19:42.722Z,101790.00
2022-12-03T02:23:15.102Z,101786.39
2022-12-03T02:26:41.896Z,101783.95
2022-12-03T02:30:11.467Z,101781.88
2022-12-03T02:33:39.710Z,101783.52
2022-12-03T02:37:08.593Z,101785.66
2022-12-03T02:40:36.278Z,101791.14
2022-12-03T02:44:03.790Z,101791.84
2022-12-03T02:47:31.951Z,101788.35
2022-12-03T02:51:02.646Z,101787.66
2022-12-03T02:54:29.943Z,101787.66
2022-12-03T02:57:57.255Z,101789.81
2022-12-03T03:01:24.453Z,101791.37
2022-12-03T03:04:52.395Z,101789.89
2022-12-03T03:08:20.553Z,101790.98
2022-12-03T03:11:47.520Z,101788.58
2022-12-03T03:15:14.848Z,101789.48
2022-12-03T03:18:42.448Z,101790.98
2022-12-03T03:22:10.791Z,101789.17
2022-12-03T03:25:38.205Z,101784.92
2022-12-03T03:29:05.118Z,101783.20
2022-12-03T03:32:33.024Z,101778.98
2022-12-03T03:36:02.126Z,101779.20
2022-12-03T03:39:29.415Z,101780.02
2022-12-03T03:42:58.171Z,101781.29
2022-12-03T03:46:25.606Z,101777.95
2022-12-03T03:49:53.049Z,101773.98
2022-12-03T03:53:20.767Z,101773.52
2022-12-03T03:56:48.209Z,101772.94
2022-12-03T04:00:17.095Z,101776.25
2022-12-03T04:03:44.236Z,101777.13
2022-12-03T04:07:11.105Z,101774.23
2022-12-03T04:10:55.606Z,101769.80
2022-12-03T04:14:22.221Z,101765.87
2022-12-03T04:18:09.677Z,101761.95
2022-12-03T04:21:54.153Z,101761.10
2022-12-03T04:25:39.000Z,101761.38
2022-12-03T04:29:06.071Z,101761.20
2022-12-03T04:32:50.518Z,101758.73
2022-12-03T04:36:17.415Z,101756.50
2022-12-03T04:39:44.744Z,101756.73
2022-12-03T04:43:13.182Z,101750.59
2022-12-03T04:46:40.351Z,101752.98
2022-12-03T04:50:09.295Z,101753.49
2022-12-03T04:53:36.463Z,101751.44
2022-12-03T04:57:04.062Z,101752.06
2022-12-03T05:00:31.077Z,101749.15
2022-12-03T05:03:58.598Z,101742.28
2022-12-03T05:07:25.390Z,101740.01
2022-12-03T05:10:52.275Z,101738.82
2022-12-03T05:14:19.576Z,101737.86
2022-12-03T05:17:46.806Z,101738.15
2022-12-03T05:21:14.224Z,101733.59
2022-12-03T05:24:41.012Z,101730.31
2022-12-03T05:28:08.268Z,101726.96
2022-12-03T05:31:35.187Z,101726.13
2022-12-03T05:35:01.902Z,101720.77
2022-12-03T05:38:28.702Z,101723.94
2022-12-03T05:42:13.373Z,101726.27
2022-12-03T05:45:41.593Z,101724.45
2022-12-03T05:49:08.356Z,101720.52
2022-12-03T05:52:35.470Z,101721.40
2022-12-03T05:56:02.485Z,101712.17
2022-12-03T05:59:29.619Z,101707.73
2022-12-03T06:02:57.268Z,101705.68
2022-12-03T06:06:24.183Z,101704.14
2022-12-03T06:09:50.966Z,101712.04
2022-12-03T06:13:18.340Z,101713.26
2022-12-03T06:16:45.244Z,101715.35
2022-12-03T06:20:15.004Z,101714.77
2022-12-03T06:23:44.879Z,101719.46
2022-12-03T06:27:11.978Z,101722.50
2022-12-03T06:30:38.729Z,101722.75
2022-12-03T06:34:05.518Z,101726.14
2022-12-03T06:37:32.540Z,101723.63
2022-12-03T06:40:59.246Z,101722.89
2022-12-03T06:44:26.292Z,101723.50
2022-12-03T06:47:53.099Z,101723.53
2022-12-03T06:51:19.927Z,101722.06
2022-12-03T06:54:46.977Z,101719.12
2022-12-03T06:58:14.717Z,101714.19
2022-12-03T07:01:41.523Z,101715.31
2022-12-03T07:05:09.778Z,101716.02
2022-12-03T07:08:36.782Z,101713.13
2022-12-03T07:12:03.476Z,101712.98
2022-12-03T07:15:30.595Z,101711.81
2022-12-03T07:18:57.231Z,101716.28
2022-12-03T07:22:24.141Z,101711.59
2022-12-03T07:25:50.939Z,101711.73
2022-12-03T07:29:17.893Z,101707.45
2022-12-03T07:32:44.990Z,101703.77
2022-12-03T07:36:12.677Z,101705.17
2022-12-03T07:39:39.563Z,101705.48
2022-12-03T07:43:06.683Z,101703.96
2022-12-03T07:46:33.441Z,101701.54
2022-12-03T07:50:00.316Z,101699.98
2022-12-03T07:53:27.164Z,101701.52
2022-12-03T07:56:59.580Z,101704.31
2022-12-03T08:00:28.577Z,101699.38
2022-12-03T08:03:55.568Z,101694.63
2022-12-03T08:07:22.732Z,101689.60
2022-12-03T08:10:49.660Z,101688.59
2022-12-03T08:14:19.520Z,101687.54
2022-12-03T08:17:52.398Z,101693.14
2022-12-03T08:21:22.700Z,101695.30
2022-12-03T08:24:49.553Z,101689.91
2022-12-03T08:28:19.961Z,101689.08
2022-12-03T08:31:52.153Z,101691.73
2022-12-03T08:35:24.873Z,101693.00
2022-12-03T08:38:53.675Z,101695.39
2022-12-03T08:42:41.768Z,101693.89
2022-12-03T08:46:15.745Z,101697.92
2022-12-03T08:49:43.358Z,101697.77
2022-12-03T08:53:26.630Z,101692.89
2022-12-03T08:56:53.636Z,101690.20
2022-12-03T09:00:23.972Z,101689.53
2022-12-03T09:03:54.482Z,101691.80
2022-12-03T09:07:21.791Z,101690.33
2022-12-03T09:10:48.735Z,101686.36
2022-12-03T09:14:18.995Z,101687.77
2022-12-03T09:17:45.848Z,101680.65
2022-12-03T09:21:12.823Z,101680.73
2022-12-03T09:24:39.606Z,101678.54
2022-12-03T09:28:06.542Z,101675.92
2022-12-03T09:31:34.520Z,101673.75
2022-12-03T09:35:01.167Z,101672.11
2022-12-03T09:38:27.980Z,101673.19
2022-12-03T09:41:55.958Z,101671.80
2022-12-03T09:45:22.815Z,101663.31
2022-12-03T09:48:49.692Z,101662.23
2022-12-03T09:52:22.344Z,101655.35
2022-12-03T09:55:50.464Z,101653.65
2022-12-03T09:59:18.395Z,101646.16
2022-12-03T10:02:46.416Z,101645.23
2022-12-03T10:06:17.956Z,101642.03
2022-12-03T10:09:44.664Z,101640.10
2022-12-03T10:13:23.892Z,101636.09
2022-12-03T10:16:52.923Z,101633.15
2022-12-03T10:20:22.362Z,101634.84
2022-12-03T10:23:54.917Z,101636.14
2022-12-03T10:27:31.169Z,101631.97
2022-12-03T10:30:59.366Z,101635.23
2022-12-03T10:34:31.905Z,101637.58
2022-12-03T10:38:04.306Z,101633.03
2022-12-03T10:41:31.624Z,101634.96
2022-12-03T10:45:16.499Z,101625.80
2022-12-03T10:48:44.708Z,101621.78
2022-12-03T10:52:26.149Z,101620.23
2022-12-03T10:55:58.817Z,101613.79
2022-12-03T10:59:28.538Z,101615.84
2022-12-03T11:02:56.974Z,101613.63
2022-12-03T11:06:25.428Z,101617.25
2022-12-03T11:09:55.794Z,101613.42
2022-12-03T11:15:15.205Z,101614.15
2022-12-03T11:19:03.342Z,101611.70
2022-12-03T11:22:41.968Z,101607.81
2022-12-03T11:26:08.737Z,101603.80
2022-12-03T11:30:04.646Z,101599.43
2022-12-03T11:33:33.303Z,101587.97
2022-12-03T11:37:29.335Z,101583.84
2022-12-03T11:45:16.649Z,101575.46
2022-12-03T11:48:44.909Z,101567.17
2022-12-03T11:52:30.620Z,101571.07
2022-12-03T11:56:08.423Z,101570.71
2022-12-03T11:59:32.203Z,101567.07
2022-12-03T12:02:57.334Z,101566.28
2022-12-03T12:06:21.696Z,101566.02
2022-12-03T12:09:53.600Z,101568.94
2022-12-03T12:13:54.810Z,101560.19
2022-12-03T12:17:32.940Z,101560.55
2022-12-03T12:21:16.209Z,101563.96
2022-12-03T12:24:51.167Z,101580.97
2022-12-03T12:28:14.694Z,101587.99
2022-12-03T12:31:38.070Z,101590.39
2022-12-03T12:35:13.328Z,101570.65
2022-12-03T12:38:36.739Z,101580.47
2022-12-03T12:42:01.153Z,101572.82
2022-12-03T12:45:27.381Z,101562.83
2022-12-03T12:48:50.683Z,101563.75
2022-12-03T12:52:14.656Z,101558.13
2022-12-03T12:55:38.730Z,101555.86
2022-12-03T12:59:12.234Z,101555.02
2022-12-03T13:02:41.792Z,101556.52
2022-12-03T13:06:11.005Z,101554.59
2022-12-03T13:09:34.495Z,101558.39
2022-12-03T13:12:57.936Z,101562.03
2022-12-03T13:16:27.552Z,101563.77
2022-12-03T13:19:58.334Z,101558.02
2022-12-03T13:23:33.971Z,101550.40
2022-12-03T13:26:58.639Z,101550.67
2022-12-03T13:30:23.237Z,101548.25
2022-12-03T13:33:46.820Z,101546.36
2022-12-03T13:37:16.464Z,101536.00
2022-12-03T13:40:40.957Z,101532.31
2022-12-03T13:44:15.352Z,101532.30
2022-12-03T13:47:39.750Z,101531.73
2022-12-03T13:51:19.464Z,101530.35
2022-12-03T13:54:43.333Z,101533.86
2022-12-03T13:58:06.621Z,101539.89
2022-12-03T14:01:29.901Z,101541.02
2022-12-03T14:04:58.447Z,101536.88
2022-12-03T14:08:23.425Z,101536.98
2022-12-03T14:12:05.075Z,101537.19
2022-12-03T14:15:28.578Z,101534.59
2022-12-03T14:18:51.830Z,101525.55
2022-12-03T14:22:15.062Z,101527.64
2022-12-03T14:25:38.214Z,101521.91
2022-12-03T14:29:05.852Z,101524.07
2022-12-03T14:32:31.965Z,101519.27
2022-12-03T14:35:55.659Z,101519.55
2022-12-03T14:39:19.105Z,101515.70
2022-12-03T14:42:42.401Z,101511.89
2022-12-03T14:46:06.053Z,101514.08
2022-12-03T14:49:29.604Z,101519.71
2022-12-03T14:52:52.916Z,101528.71
2022-12-03T14:56:16.134Z,101528.55
2022-12-03T14:59:40.430Z,101533.37
2022-12-03T15:03:03.871Z,101530.55
2022-12-03T15:06:27.570Z,101530.17
2022-12-03T15:09:50.768Z,101530.04
2022-12-03T15:13:14.121Z,101527.44
2022-12-03T15:16:37.522Z,101528.49
2022-12-03T15:20:00.823Z,101527.41
2022-12-03T15:23:24.221Z,101531.61
2022-12-03T15:26:48.631Z,101532.00
2022-12-03T15:30:12.405Z,101532.09
2022-12-03T15:33:36.734Z,101540.02
2022-12-03T15:37:00.148Z,101536.98
2022-12-03T15:40:23.408Z,101533.74
2022-12-03T15:43:46.950Z,101530.60
2022-12-03T15:47:10.341Z,101526.64
2022-12-03T15:50:38.586Z,101521.19
2022-12-03T15:54:03.725Z,101522.60
2022-12-03T15:57:27.407Z,101518.83
2022-12-03T16:00:50.994Z,101519.42
2022-12-03T16:04:14.413Z,101526.39
2022-12-03T16:07:38.317Z,101529.48
2022-12-03T16:11:02.110Z,101528.39
2022-12-03T16:14:25.354Z,101520.98
2022-12-03T16:17:48.707Z,101523.62
2022-12-03T16:21:12.256Z,101522.75
2022-12-03T16:24:35.903Z,101522.83
2022-12-03T16:27:59.355Z,101525.67
2022-12-03T16:31:23.818Z,101523.85
2022-12-03T16:34:47.158Z,101522.34
2022-12-03T16:38:11.019Z,101519.36
2022-12-03T16:41:34.242Z,101527.80
2022-12-03T16:45:15.905Z,101528.39
2022-12-03T16:48:39.441Z,101532.52
2022-12-03T16:52:03.420Z,101527.98
2022-12-03T16:55:27.194Z,101529.23
2022-12-03T16:58:51.221Z,101528.23
2022-12-03T17:02:14.735Z,101529.13
2022-12-03T17:05:39.909Z,101530.05
2022-12-03T17:09:03.309Z,101523.95
2022-12-03T17:12:37.492Z,101524.08
2022-12-03T17:16:10.346Z,101519.84
2022-12-03T17:19:33.728Z,101519.48
2022-12-03T17:22:57.629Z,101515.53
2022-12-03T17:26:21.002Z,101512.20
2022-12-03T17:29:44.328Z,101511.63
2022-12-03T17:33:07.713Z,101512.02
2022-12-03T17:36:31.086Z,101514.52
2022-12-03T17:39:54.685Z,101509.21
2022-12-03T17:43:18.448Z,101515.02
2022-12-03T17:46:41.822Z,101513.34
2022-12-03T17:50:08.497Z,101516.08
2022-12-03T17:53:31.798Z,101513.45
2022-12-03T17:56:55.266Z,101514.98
2022-12-03T18:00:19.835Z,101517.14
2022-12-03T18:03:43.158Z,101520.48
2022-12-03T18:07:06.597Z,101515.02
2022-12-03T18:10:29.894Z,101514.83
2022-12-03T18:13:53.256Z,101507.08
2022-12-03T18:17:16.623Z,101501.05
2022-12-03T18:20:39.949Z,101504.73
2022-12-03T18:24:04.491Z,101503.38
2022-12-03T18:27:28.370Z,101497.74
2022-12-03T18:30:52.910Z,101500.00
2022-12-03T18:34:16.513Z,101500.48
2022-12-03T18:37:40.062Z,101495.55
2022-12-03T18:41:03.897Z,101493.75
2022-12-03T18:44:28.865Z,101488.46
2022-12-03T18:47:52.554Z,101494.13
2022-12-03T18:51:18.176Z,101500.24
2022-12-03T18:54:41.792Z,101498.70
2022-12-03T18:58:05.494Z,101502.45
2022-12-03T19:01:29.060Z,101497.52
2022-12-03T19:04:52.402Z,101496.58
2022-12-03T19:08:15.696Z,101497.90
2022-12-03T19:11:39.287Z,101500.03
2022-12-03T19:15:03.264Z,101499.80
2022-12-03T19:18:27.530Z,101500.55
2022-12-03T19:21:50.879Z,101497.78
2022-12-03T19:25:14.207Z,101498.73
2022-12-03T19:28:37.654Z,101496.44
2022-12-03T19:32:01.195Z,101503.66
2022-12-03T19:35:24.584Z,101505.17
2022-12-03T19:38:55.034Z,101512.60
2022-12-03T19:42:20.180Z,101508.01
2022-12-03T19:45:43.509Z,101506.02
2022-12-03T19:49:07.479Z,101505.91
2022-12-03T19:52:30.939Z,101510.57
2022-12-03T19:55:55.881Z,101509.15
2022-12-03T19:59:19.235Z,101512.24
2022-12-03T20:02:42.722Z,101503.27
2022-12-03T20:06:09.278Z,101503.23
2022-12-03T20:09:32.944Z,101504.78
2022-12-03T20:12:56.289Z,101504.38
2022-12-03T20:16:20.256Z,101502.89
2022-12-03T20:19:44.378Z,101499.74
2022-12-03T20:23:07.617Z,101504.25
2022-12-03T20:26:31.603Z,101504.20
2022-12-03T20:29:55.244Z,101504.05
2022-12-03T20:33:18.844Z,101503.51
2022-12-03T20:36:43.595Z,101495.39
2022-12-03T20:40:09.547Z,101489.03
2022-12-03T20:43:33.323Z,101487.42
2022-12-03T20:46:56.612Z,101482.80
2022-12-03T20:50:20.125Z,101483.80
2022-12-03T20:53:44.630Z,101483.09
2022-12-03T20:57:07.923Z,101481.05
2022-12-03T21:00:31.739Z,101481.91
2022-12-03T21:03:56.405Z,101485.38
2022-12-03T21:07:19.793Z,101485.13
2022-12-03T21:10:46.846Z,101486.41
2022-12-03T21:14:10.862Z,101486.80
2022-12-03T21:17:34.281Z,101484.37
2022-12-03T21:21:00.140Z,101481.77
2022-12-03T21:24:23.388Z,101480.73
2022-12-03T21:27:46.692Z,101477.60
2022-12-03T21:31:12.201Z,101478.23
2022-12-03T21:34:36.640Z,101479.32
2022-12-03T21:38:00.326Z,101476.98
2022-12-03T21:41:23.858Z,101474.41
2022-12-03T21:44:47.087Z,101474.34
2022-12-03T21:48:11.215Z,101463.56
2022-12-03T21:51:35.171Z,101455.95
2022-12-03T21:54:58.584Z,101453.83
2022-12-03T21:58:21.857Z,101451.46
2022-12-03T22:01:47.352Z,101452.91
2022-12-03T22:05:11.564Z,101455.59
2022-12-03T22:08:35.218Z,101454.02
2022-12-03T22:12:00.239Z,101450.36
2022-12-03T22:15:23.640Z,101441.02
2022-12-03T22:18:47.009Z,101443.05
2022-12-03T22:22:10.288Z,101443.70
2022-12-03T22:25:33.849Z,101437.77
2022-12-03T22:28:57.174Z,101439.37
2022-12-03T22:32:20.757Z,101435.50
2022-12-03T22:35:53.297Z,101434.70
2022-12-03T22:39:16.689Z,101438.19
2022-12-03T22:42:40.103Z,101435.13
2022-12-03T22:46:04.224Z,101435.14
2022-12-03T22:49:28.715Z,101435.54
2022-12-03T22:52:52.120Z,101435.36
2022-12-03T22:56:16.584Z,101431.46
2022-12-03T22:59:39.860Z,101433.88
2022-12-03T23:03:04.206Z,101430.45
2022-12-03T23:06:29.536Z,101438.19
2022-12-03T23:09:53.060Z,101435.73
2022-12-03T23:13:18.850Z,101430.77
2022-12-03T23:16:42.308Z,101426.03
2022-12-03T23:20:08.721Z,101422.30
2022-12-03T23:23:33.315Z,101422.27
2022-12-03T23:26:57.850Z,101409.38
2022-12-03T23:30:21.506Z,101396.46
2022-12-03T23:33:45.716Z,101397.64
2022-12-03T23:37:09.359Z,101395.43
2022-12-03T23:40:33.732Z,101389.54
2022-12-03T23:43:57.833Z,101380.89
2022-12-03T23:47:21.498Z,101380.55
2022-12-03T23:50:45.013Z,101377.60
2022-12-03T23:54:08.672Z,101373.98
2022-12-03T23:57:32.273Z,101373.33
